Flight Track Log - Related Links

Times and Time Zones

All times are in EDT time to prevent confusion due to time zone crossing. See the N779NC flight status page for this flight to view local times or setup timezone preferences in your user account.

Time Position Orientation Groundspeed Altitude Reporting Facility
EDT Latitude Longitude Course Direction KTS MPH feet Rate Location/Type
Tue 09:44:27 AM 41.9500 -87.9167 166° South 165 190 1,600  Level Chicago TRACON
Tue 09:45:21 AM 41.9000 -87.9167 180° South 226 260 3,100 1,850 Climbing Chicago TRACON
Tue 09:46:40 AM 41.8264 -87.8489 146° Southeast 250 288 5,700 1,957 Climbing Chicago Center
Tue 09:47:00 AM 41.5590 -87.7087 168° South  Level Estimated
Tue 09:47:42 AM 41.7617 -87.7978 149° Southeast 286 329 7,700  Level Chicago Center
Tue 09:48:00 AM 41.4533 -87.6597 180° South  Level Estimated
Tue 09:48:44 AM 41.6836 -87.7708 166° South 288 331 10,100  Level Chicago Center
Tue 09:49:00 AM 41.3476 -87.6108 166° South  Level Estimated
Tue 09:49:45 AM 41.5986 -87.7658 177° South 304 350 12,100  Level Chicago Center
Tue 09:50:47 AM 41.5128 -87.7825 188° South 310 357 13,600 1,258 Climbing Chicago Center
Tue 09:51:49 AM 41.4144 -87.8078 191° South 352 405 14,700 1,597 Climbing Chicago Center
Tue 09:52:51 AM 41.2911 -87.8419 192° South 373 429 16,900 1,742 Climbing Chicago Center
Tue 09:53:53 AM 41.1858 -87.8567 186° South 385 443 18,300 1,403 Climbing Chicago Center
Tue 09:54:55 AM 41.0806 -87.8089 161° South 399 459 19,800 1,415 Climbing Chicago Center
Tue 09:55:56 AM 40.9733 -87.7600 161° South 406 467 21,200 1,220 Climbing Chicago Center
Tue 09:56:58 AM 40.8653 -87.7117 161° South 412 474 22,300 1,065 Climbing Chicago Center
Tue 09:58:00 AM 40.7539 -87.6656 163° South 418 481 23,400 968 Climbing Chicago Center
Tue 09:59:02 AM 40.6386 -87.6208 164° South 431 496 24,300 878 Climbing Chicago Center
Tue 10:00:03 AM 40.4983 -87.5619 162° South 443 510 25,200 829 Climbing Chicago Center
Tue 10:01:05 AM 40.3783 -87.5147 163° South 449 517 26,000 871 Climbing Chicago Center
Tue 10:02:07 AM 40.2575 -87.4694 164° South 453 521 27,000 1,065 Climbing Chicago Center
Tue 10:03:09 AM 40.1253 -87.4422 171° South 455 524 28,200 923 Climbing Chicago Center
Tue 10:04:04 AM 40.0258 -87.4172 169° South 452 520 28,800 821 Climbing Indianapolis Center
Tue 10:05:06 AM 39.8786 -87.3786 169° South 452 520 29,800 919 Climbing Indianapolis Center
Tue 10:06:08 AM 39.7578 -87.3408 166° South 450 518 30,700 871 Climbing Indianapolis Center
Tue 10:07:10 AM 39.6369 -87.3031 166° South 451 519 31,600 726 Climbing Indianapolis Center
Tue 10:08:12 AM 39.5172 -87.2631 166° South 448 516 32,200 532 Climbing Indianapolis Center
Tue 10:09:14 AM 39.3975 -87.2183 164° South 450 518 32,700 532 Climbing Indianapolis Center
Tue 10:10:16 AM 39.2500 -87.1753 167° South 455 524 33,300 528 Climbing Indianapolis Center
Tue 10:11:19 AM 39.1269 -87.1447 169° South 453 521 33,800 336 Climbing Indianapolis Center
Tue 10:12:21 AM 39.0069 -87.1033 165° South 456 525 34,000 97 Climbing Indianapolis Center
Tue 10:13:23 AM 38.8836 -87.0447 160° South 465 535 34,000  Level Indianapolis Center
Tue 10:14:25 AM 38.7569 -86.9992 164° South 469 540 34,000  Level Indianapolis Center
Tue 10:16:29 AM 38.4753 -86.8936 164° South 473 544 34,000 65 Level Indianapolis Center
Tue 10:17:31 AM 38.3453 -86.8450 164° South 474 545 34,200 387 Climbing Indianapolis Center
Tue 10:18:33 AM 38.2186 -86.7936 162° South 469 540 34,800 387 Climbing Indianapolis Center
Tue 10:19:35 AM 38.0917 -86.7517 165° South 464 534 35,000 97 Climbing Indianapolis Center
Tue 10:20:37 AM 37.9647 -86.7181 168° South 464 534 35,000  Level Indianapolis Center
Tue 10:21:39 AM 37.8347 -86.7083 177° South 463 533 35,000  Level Indianapolis Center
Tue 10:22:41 AM 37.7058 -86.6956 176° South 466 536 35,000  Level Indianapolis Center
Tue 10:23:43 AM 37.5758 -86.6756 173° South 468 539 35,000  Level Indianapolis Center
Tue 10:24:45 AM 37.4375 -86.6506 172° South 468 539 35,000  Level Indianapolis Center
Tue 10:25:47 AM 37.3147 -86.5853 157° South 473 544 35,000  Level Indianapolis Center
Tue 10:26:49 AM 37.1908 -86.5231 158° South 472 543 35,000  Level Indianapolis Center
Tue 10:27:50 AM 37.0456 -86.4608 161° South 473 544 35,000  Level Memphis Center
Tue 10:28:50 AM 36.9319 -86.4225 165° South 478 550 35,000  Level Memphis Center
Tue 10:29:50 AM 36.8000 -86.4056 174° South 472 543 35,000  Level Memphis Center
Tue 10:30:50 AM 36.6689 -86.4094 181° South 472 543 35,000  Level Memphis Center
Tue 10:31:50 AM 36.5378 -86.4158 182° South 477 549 35,000 -400 Level Memphis Center
Tue 10:32:50 AM 36.3914 -86.3997 175° South 477 549 34,200 -950 Descending Memphis Center
Tue 10:33:50 AM 36.2572 -86.3781 173° South 477 549 33,100 -600 Descending Memphis Center
Tue 10:34:50 AM 36.1253 -86.3586 173° South 483 556 33,000 -50 Descending Memphis Center
Tue 10:35:50 AM 35.9936 -86.3444 175° South 483 556 33,000  Level Memphis Center
Tue 10:36:50 AM 35.8639 -86.3331 176° South 483 556 33,000  Level Memphis Center
Tue 10:38:48 AM 35.6278 -86.2386 162° South 438 504 33,000  Level Atlanta Center
Tue 10:39:48 AM 35.5186 -86.1489 146° Southeast 461 531 33,000  Level Atlanta Center
Tue 10:40:48 AM 35.4200 -86.0622 144° Southeast 476 548 33,000 -300 Level Atlanta Center
Tue 10:41:48 AM 35.3047 -85.9653 146° Southeast 476 548 32,400 -1,250 Descending Atlanta Center
Tue 10:42:48 AM 35.1775 -85.9572 177° South 448 516 30,500 -2,150 Descending Atlanta Center
Tue 10:43:48 AM 35.0522 -85.9644 183° South 449 517 28,100 -2,300 Descending Atlanta Center
Tue 10:44:48 AM 34.9228 -85.9642 180° South 456 525 25,900 -1,900 Descending Atlanta Center
Tue 10:45:48 AM 34.8300 -85.8936 148° Southeast 446 513 24,300 -950 Descending Atlanta Center
Tue 10:46:48 AM 34.7294 -85.7775 136° Southeast 430 495 24,000 -150 Descending Atlanta Center
Tue 10:47:48 AM 34.6433 -85.6747 136° Southeast 435 501 24,000  Level Atlanta Center
Tue 10:48:48 AM 34.5550 -85.5697 136° Southeast 440 506 24,000 -650 Level Atlanta Center
Tue 10:49:48 AM 34.4686 -85.4647 135° Southeast 440 506 22,700 -1,800 Descending Atlanta Center
Tue 10:50:48 AM 34.4025 -85.3858 135° Southeast 433 498 20,400 -2,600 Descending Atlanta Center
Tue 10:51:48 AM 34.3078 -85.2736 136° Southeast 408 470 17,500 -2,750 Descending Atlanta Center
Tue 10:52:48 AM 34.2208 -85.1919 142° Southeast 390 449 14,900 -1,750 Descending Atlanta Center
Tue 10:53:48 AM 34.1467 -85.1056 136° Southeast 385 443 14,000 -450 Descending Atlanta Center
Tue 10:54:48 AM 34.0786 -85.0069 130° Southeast 372 428 14,000 -633 Level Atlanta Center
Tue 10:56:48 AM 33.9400 -84.8225 132° Southeast 372 428 12,100 -633 Descending Atlanta Center
Tue 10:57:48 AM 33.8675 -84.7367 135° Southeast 367 422 12,100  Level Atlanta Center
Tue 10:58:48 AM 33.7928 -84.6511 136° Southeast 367 422 12,100 -50 Level Atlanta Center
Tue 10:59:48 AM 33.7306 -84.5708 133° Southeast 351 404 12,000 -950 Descending Atlanta Center
Tue 11:00:48 AM 33.7247 -84.4683 94° East 301 346 10,200 -1,701 Descending Atlanta Center
Tue 11:01:55 AM 33.7333 -84.3500 85° East 302 348 8,400 -1,748 Descending Atlanta TRACON
Tue 11:02:55 AM 33.7333 -84.2500 90° East 297 342 6,500 -1,474 Descending Atlanta TRACON
Tue 11:03:49 AM 33.7333 -84.1667 90° East 296 341 5,600 -789 Descending Atlanta TRACON
Tue 11:04:49 AM 33.7333 -84.0667 90° East 276 318 5,000 -250 Descending Atlanta TRACON
Tue 11:05:49 AM 33.7000 -84.0000 121° Southeast 253 291 5,100 50 Climbing Atlanta TRACON
Tue 11:06:49 AM 33.6500 -84.0500 220° Southwest 226 260 5,100  Level Atlanta TRACON
Tue 11:07:49 AM 33.6500 -84.1167 270° West 199 229 5,100 -209 Level Atlanta TRACON
Tue 11:08:44 AM 33.6500 -84.1833 270° West 203 234 4,700 -730 Descending Atlanta TRACON
Tue 11:09:44 AM 33.6500 -84.2500 270° West 193 222 3,700 -1,000 Descending Atlanta TRACON
Tue 11:10:44 AM 33.6500 -84.3000 270° West 194 223 2,700 -1,000 Descending Atlanta TRACON
Tue 11:11:38 AM 33.6500 -84.3667 270° West 151 174 1,800 -842 Descending Atlanta TRACON
Tue 11:12:38 AM 33.6500 -84.4000 270° West 139 160 1,100 -700 Descending Atlanta TRACON
Tue 11:14:00 AM 33.6333 -84.4167 North  Level FlightAware Approximate
Tue 11:21:00 AM 33.6367 -84.4279 North  Level Estimated

Login

Don't have an account? Register now (free) for customized features, flight alerts, and more!